< < Back
Terminal Aerodrome Forecast


Current Version              Previous Versions:   1  2  3  4  5  6  7  8  9  

Terminal Aerodrome Forecast

689
FTUS42 KGSP 270323 AAA
TAFAVL
TAF AMD
KAVL 270323Z 2703/2724 00000KT 6SM BR VCSH SCT006 OVC060
      TEMPO 2703/2707 2SM BR BKN003 OVC015
     FM270700 VRB02KT 2SM BR VCSH SCT005 OVC015
     FM271000 VRB02KT 1SM BR SCT003 OVC008
     FM271400 33006KT P6SM BKN080 PROB30 2716/2718 4SM -TSRA
      OVC025CB
     FM271800 32005KT 6SM -SHRA VCTS BKN050CB=

Latest METAR

791
SAUS70 KWBC 271000 RRI
MTRAVL
METAR KAVL 270954Z AUTO 00000KT 6SM -RA BR BKN004 BKN007 OVC090 18/16
A3004 RMK AO2 RAB13 SLP152 P0004 T01780161


USA.gov is the U.S. government's official web portal to all federal, state and local government web resources and services.